Terminal Aerodrome Forecast
Issued by NWS Memphis, TN

Home | Current Version | Previous Version | Text Only | Print | Product List | Glossary On
Versions: 1 2 3 4 5 6 7 8 9 10 11 12 13 14 15 16
708
FTUS44 KMEG 250530
TAFJBR
TAF
KJBR 250530Z 2506/2606 32004KT P6SM FEW100
     FM251300 32006KT P6SM BKN100 OVC250
     FM251600 30006KT P6SM VCSH SCT035 OVC060
      TEMPO 2519/2523 6SM -RA BR BKN035
     FM252300 34005KT 6SM -RA BR BKN025 OVC035
     FM260500 VRB03KT 5SM -RA BR BKN005 OVC015=

USA.gov is the U.S. government's official web portal to all federal, state and local government web resources and services.